Time;durP1;ratioP1;P1;durP2;ratioP2;P2;SDS_P1;SDS_P2;PMS_P1;PMS_P2;Temp;Humidity;BMP_temperature;BMP_pressure;BME280_temperature;BME280_humidity;BME280_pressure;Samples;Min_cycle;Max_cycle;Signal;HPM_P1;HPM_P2
2022/04/09 00:02:19;;;;;;;17.83;16.93;;;3.60;99.90;;;;;;4993298;28;20454;-76
2022/04/09 00:04:48;;;;;;;18.20;17.20;;;3.70;99.90;;;;;;4993621;28;20467;-76
2022/04/09 00:07:14;;;;;;;18.13;17.13;;;3.60;99.90;;;;;;4995259;28;20474;-77
2022/04/09 00:09:42;;;;;;;18.10;17.10;;;3.50;99.90;;;;;;4986934;28;20463;-77
2022/04/09 00:12:09;;;;;;;18.30;17.30;;;3.50;99.90;;;;;;4985988;28;20931;-76
2022/04/09 00:14:36;;;;;;;18.43;17.43;;;3.50;99.90;;;;;;5000318;28;20451;-77
2022/04/09 00:17:03;;;;;;;18.30;17.30;;;3.50;99.90;;;;;;4982160;28;20432;-76
2022/04/09 00:19:30;;;;;;;18.30;17.30;;;3.50;99.90;;;;;;4984537;28;20471;-77
2022/04/09 00:21:59;;;;;;;18.33;17.33;;;3.50;99.90;;;;;;4982763;28;20457;-77
2022/04/09 00:24:26;;;;;;;18.40;17.40;;;3.40;99.90;;;;;;4977107;28;20482;-77
2022/04/09 00:26:52;;;;;;;18.40;17.40;;;3.40;99.90;;;;;;5000791;28;20530;-77
2022/04/09 00:29:19;;;;;;;18.20;17.20;;;3.40;99.90;;;;;;4984097;28;20444;-76
2022/04/09 00:31:46;;;;;;;18.63;17.63;;;3.40;99.90;;;;;;4986383;28;20432;-76
2022/04/09 00:34:13;;;;;;;18.77;17.77;;;3.30;99.90;;;;;;4980296;28;20447;-76
2022/04/09 00:36:40;;;;;;;18.70;17.70;;;3.30;99.90;;;;;;4983939;28;20439;-76
2022/04/09 00:39:09;;;;;;;18.57;17.57;;;3.20;99.90;;;;;;4982990;28;20437;-76
2022/04/09 00:41:35;;;;;;;18.67;17.67;;;3.20;99.90;;;;;;4984976;28;20798;-77
2022/04/09 00:44:03;;;;;;;18.87;17.87;;;3.20;99.90;;;;;;4984094;28;20438;-77
2022/04/09 00:46:30;;;;;;;18.90;17.90;;;3.20;99.90;;;;;;4979605;28;20513;-76
2022/04/09 00:48:56;;;;;;;18.90;17.90;;;3.20;99.90;;;;;;4980098;28;20471;-76
2022/04/09 00:51:23;;;;;;;18.80;17.80;;;3.30;99.90;;;;;;4981749;28;20449;-76
2022/04/09 00:53:52;;;;;;;18.70;17.70;;;3.20;99.90;;;;;;4982956;28;20440;-76
2022/04/09 00:56:22;;;;;;;18.83;17.83;;;3.30;99.90;;;;;;4983661;28;20432;-76
2022/04/09 00:58:55;;;;;;;18.90;17.90;;;3.30;99.90;;;;;;4985507;28;20523;-77
2022/04/09 01:01:23;;;;;;;18.77;17.77;;;3.30;99.90;;;;;;4982802;28;20449;-76
2022/04/09 01:03:51;;;;;;;18.83;17.83;;;3.30;99.90;;;;;;4981075;28;20953;-76
2022/04/09 01:06:18;;;;;;;18.47;17.47;;;3.30;99.90;;;;;;4979217;28;20497;-76
2022/04/09 01:08:45;;;;;;;18.93;17.93;;;3.30;99.90;;;;;;4999570;28;20494;-76
2022/04/09 01:11:13;;;;;;;18.80;17.80;;;3.30;99.90;;;;;;4981231;28;20471;-76
2022/04/09 01:13:43;;;;;;;18.83;17.83;;;3.20;99.90;;;;;;4982445;28;20907;-76
2022/04/09 01:16:11;;;;;;;19.03;17.93;;;3.20;99.90;;;;;;4982724;28;20428;-76
2022/04/09 01:18:41;;;;;;;18.60;17.60;;;3.20;99.90;;;;;;4954039;28;20501;-76
2022/04/09 01:21:10;;;;;;;18.87;17.87;;;3.10;99.90;;;;;;4981007;28;20471;-77
2022/04/09 01:23:38;;;;;;;18.70;17.70;;;3.20;99.90;;;;;;4970084;28;20844;-76
2022/04/09 01:26:07;;;;;;;18.73;17.73;;;3.20;99.90;;;;;;4955686;28;21074;-76
2022/04/09 01:28:36;;;;;;;18.77;17.77;;;3.20;99.90;;;;;;4958831;28;20446;-76
2022/04/09 01:31:04;;;;;;;18.90;17.90;;;3.20;99.90;;;;;;4983810;28;20828;-77
2022/04/09 01:33:30;;;;;;;18.67;17.67;;;3.10;99.90;;;;;;4991718;28;20478;-76
2022/04/09 01:35:57;;;;;;;18.93;17.93;;;3.20;99.90;;;;;;4989471;28;20453;-77
2022/04/09 01:38:24;;;;;;;18.77;17.77;;;3.20;99.90;;;;;;4981053;28;20463;-77
2022/04/09 01:40:54;;;;;;;18.97;17.97;;;3.20;99.90;;;;;;4983225;28;20538;-77
2022/04/09 01:43:23;;;;;;;18.77;17.77;;;3.20;99.90;;;;;;4985876;28;20540;-77
2022/04/09 01:45:50;;;;;;;18.93;17.93;;;3.10;99.90;;;;;;4990604;28;20500;-76
2022/04/09 01:48:19;;;;;;;19.10;18.10;;;3.10;99.90;;;;;;4984427;28;20449;-77
2022/04/09 01:50:47;;;;;;;18.80;17.80;;;3.10;99.90;;;;;;4992198;28;20813;-77
2022/04/09 01:53:15;;;;;;;18.87;17.87;;;3.10;99.90;;;;;;4986931;28;20487;-76
2022/04/09 01:55:44;;;;;;;19.00;18.00;;;3.10;99.90;;;;;;4990757;28;20449;-76
2022/04/09 01:58:12;;;;;;;19.17;18.17;;;3.10;99.90;;;;;;4982119;28;20456;-76
2022/04/09 02:00:43;;;;;;;19.33;18.33;;;3.10;99.90;;;;;;4975736;28;20471;-76
2022/04/09 02:03:10;;;;;;;19.43;18.43;;;3.10;99.90;;;;;;4983918;28;20927;-77
2022/04/09 02:05:37;;;;;;;19.30;18.30;;;3.10;99.90;;;;;;4982434;28;20454;-76
2022/04/09 02:08:06;;;;;;;19.60;18.60;;;3.20;99.90;;;;;;4983974;28;20459;-76
2022/04/09 02:10:34;;;;;;;19.80;18.70;;;3.10;99.90;;;;;;4995447;28;21010;-76
2022/04/09 02:13:04;;;;;;;19.43;18.43;;;3.10;99.90;;;;;;4980654;28;20448;-76
2022/04/09 02:15:32;;;;;;;19.70;18.70;;;3.20;99.90;;;;;;4990277;28;20467;-76
2022/04/09 02:18:00;;;;;;;19.80;18.70;;;3.20;99.90;;;;;;5000813;28;20449;-76
2022/04/09 02:20:28;;;;;;;19.77;18.73;;;3.20;99.90;;;;;;4985291;28;20478;-77
2022/04/09 02:22:55;;;;;;;19.60;18.60;;;3.30;99.90;;;;;;4986359;28;20519;-76
2022/04/09 02:25:22;;;;;;;19.70;18.70;;;3.30;99.90;;;;;;4995144;28;20452;-76
2022/04/09 02:27:49;;;;;;;19.50;18.40;;;3.30;99.90;;;;;;5010427;28;20504;-77
2022/04/09 02:30:20;;;;;;;20.27;19.17;;;3.40;99.90;;;;;;5011148;28;20516;-76
2022/04/09 02:32:57;;;;;;;19.67;18.67;;;3.40;99.90;;;;;;4974686;28;20955;-76
2022/04/09 02:35:28;;;;;;;20.00;18.90;;;3.40;99.90;;;;;;4983965;28;20456;-77
2022/04/09 02:37:57;;;;;;;20.07;18.97;;;3.40;99.90;;;;;;4975866;28;20520;-76
2022/04/09 02:40:25;;;;;;;20.00;18.90;;;3.40;99.90;;;;;;4985141;28;20994;-76
2022/04/09 02:42:53;;;;;;;19.73;18.63;;;3.40;99.90;;;;;;4985850;28;20459;-76
2022/04/09 02:45:21;;;;;;;20.40;19.20;;;3.40;99.90;;;;;;4983778;28;20453;-76
2022/04/09 02:47:51;;;;;;;20.30;19.10;;;3.40;99.90;;;;;;4979110;28;20561;-76
2022/04/09 02:50:23;;;;;;;19.53;18.43;;;3.40;99.90;;;;;;4984711;28;20472;-76
2022/04/09 02:52:50;;;;;;;19.70;18.60;;;3.40;99.90;;;;;;4989224;28;20454;-77
2022/04/09 02:55:19;;;;;;;20.07;18.87;;;3.40;99.90;;;;;;4979577;28;20445;-76
2022/04/09 02:57:47;;;;;;;20.00;18.90;;;3.50;99.90;;;;;;4961888;28;20460;-77
2022/04/09 03:00:18;;;;;;;20.00;18.90;;;3.50;99.90;;;;;;4978953;28;20868;-76
2022/04/09 03:02:45;;;;;;;20.13;18.93;;;3.50;99.90;;;;;;4981226;28;20500;-76
2022/04/09 03:05:23;;;;;;;19.40;18.40;;;3.50;99.90;;;;;;4970945;28;20497;-77
2022/04/09 03:07:50;;;;;;;19.57;18.47;;;3.50;99.90;;;;;;4961923;28;20249;-76
2022/04/09 03:10:17;;;;;;;19.57;18.47;;;3.50;99.90;;;;;;4982710;28;20479;-76
2022/04/09 03:12:44;;;;;;;20.10;18.90;;;3.50;99.90;;;;;;4980842;28;20877;-76
2022/04/09 03:15:11;;;;;;;20.23;19.03;;;3.50;99.90;;;;;;4996665;28;20571;-76
2022/04/09 03:17:39;;;;;;;19.10;18.10;;;3.50;99.90;;;;;;4989415;28;20197;-76
2022/04/09 03:20:08;;;;;;;20.17;18.97;;;3.50;99.90;;;;;;4981685;28;20539;-76
2022/04/09 03:22:36;;;;;;;20.50;19.30;;;3.50;99.90;;;;;;4978601;28;20452;-77
2022/04/09 03:25:05;;;;;;;20.13;18.93;;;3.50;99.90;;;;;;4982178;28;20545;-77
2022/04/09 03:27:34;;;;;;;20.80;19.50;;;3.40;99.90;;;;;;4979790;28;20480;-76
2022/04/09 03:30:02;;;;;;;21.20;19.90;;;3.40;99.90;;;;;;4984113;28;20467;-77
2022/04/09 03:32:33;;;;;;;21.37;20.17;;;3.30;99.90;;;;;;4970741;28;20556;-77
2022/04/09 03:35:01;;;;;;;21.47;20.17;;;3.30;99.90;;;;;;4973612;28;20962;-77
2022/04/09 03:37:30;;;;;;;20.73;19.53;;;3.30;99.90;;;;;;4982582;28;20204;-76
2022/04/09 03:39:59;;;;;;;21.27;19.97;;;3.30;99.90;;;;;;4967877;28;20985;-78
2022/04/09 03:42:26;;;;;;;21.30;20.10;;;3.30;99.90;;;;;;4973905;28;20839;-77
2022/04/09 03:44:55;;;;;;;21.70;20.30;;;3.30;99.90;;;;;;4965525;28;20544;-77
2022/04/09 03:47:22;;;;;;;21.87;20.47;;;3.30;99.90;;;;;;4969419;28;20222;-77
2022/04/09 03:49:50;;;;;;;21.40;20.10;;;3.30;99.90;;;;;;4973144;28;20570;-77
2022/04/09 03:52:18;;;;;;;21.33;20.03;;;3.30;99.90;;;;;;4988364;28;20540;-77
2022/04/09 03:54:45;;;;;;;21.00;19.57;;;3.30;99.90;;;;;;4982802;28;20470;-77
2022/04/09 03:57:14;;;;;;;21.80;20.40;;;3.20;99.90;;;;;;4987102;28;20457;-77
2022/04/09 03:59:52;;;;;;;21.23;20.03;;;3.30;99.90;;;;;;4966891;28;20756;-77
2022/04/09 04:02:19;;;;;;;21.53;20.23;;;3.30;99.90;;;;;;4984222;28;20460;-77
2022/04/09 04:04:46;;;;;;;20.60;19.40;;;3.30;99.90;;;;;;4981954;28;20483;-76
2022/04/09 04:07:14;;;;;;;21.07;19.70;;;3.30;99.90;;;;;;4975683;28;20476;-76
2022/04/09 04:09:43;;;;;;;21.40;20.10;;;3.30;99.90;;;;;;4999112;28;20528;-77
2022/04/09 04:12:11;;;;;;;21.33;20.03;;;3.40;99.90;;;;;;4981828;28;20452;-77
2022/04/09 04:14:39;;;;;;;21.37;20.07;;;3.40;99.90;;;;;;4998340;28;20464;-77
2022/04/09 04:17:07;;;;;;;19.63;18.43;;;3.40;99.90;;;;;;4984255;28;20480;-77
2022/04/09 04:19:36;;;;;;;19.87;18.67;;;3.40;99.90;;;;;;4984051;28;20517;-77
2022/04/09 04:22:05;;;;;;;19.47;18.20;;;3.40;99.90;;;;;;4980435;28;20201;-77
2022/04/09 04:24:37;;;;;;;19.13;18.03;;;3.40;99.90;;;;;;4983142;28;20958;-77
2022/04/09 04:27:05;;;;;;;20.17;18.87;;;3.40;99.90;;;;;;4978631;28;20475;-77
2022/04/09 04:29:33;;;;;;;18.87;17.77;;;3.40;99.90;;;;;;4970796;28;20575;-77
2022/04/09 04:32:01;;;;;;;18.40;17.30;;;3.50;99.90;;;;;;4981050;28;20452;-76
2022/04/09 04:34:29;;;;;;;18.30;17.20;;;3.50;99.90;;;;;;4981738;28;20457;-76
2022/04/09 04:36:55;;;;;;;18.50;17.30;;;3.50;99.90;;;;;;4983103;28;20889;-77
2022/04/09 04:39:24;;;;;;;18.40;17.17;;;3.50;99.90;;;;;;4987751;28;20964;-77
2022/04/09 04:41:53;;;;;;;17.87;16.87;;;3.50;99.90;;;;;;4977586;28;20444;-77
2022/04/09 04:44:20;;;;;;;17.40;16.40;;;3.50;99.90;;;;;;4983894;28;20995;-77
2022/04/09 04:46:52;;;;;;;17.97;16.97;;;3.50;99.90;;;;;;4974686;28;20868;-77
2022/04/09 04:49:24;;;;;;;14.30;13.40;;;3.60;99.90;;;;;;4982963;28;20302;-76
2022/04/09 04:51:56;;;;;;;16.40;15.40;;;3.70;99.90;;;;;;4980381;28;20454;-77
2022/04/09 04:54:23;;;;;;;14.57;13.57;;;3.60;99.90;;;;;;4982576;28;20197;-77
2022/04/09 04:56:50;;;;;;;11.80;10.90;;;3.60;99.90;;;;;;4987094;28;20987;-77
2022/04/09 04:59:18;;;;;;;11.20;10.40;;;3.70;99.90;;;;;;4974914;28;20476;-77
2022/04/09 05:01:44;;;;;;;10.10;9.40;;;3.70;99.90;;;;;;4986404;28;20968;-77
2022/04/09 05:04:11;;;;;;;16.30;15.30;;;3.70;99.90;;;;;;4976998;28;20454;-77
2022/04/09 05:07:02;;;;;;;20.73;19.30;;;3.70;99.90;;;;;;4989493;28;20470;-76
2022/04/09 05:09:30;;;;;;;17.00;15.90;;;3.80;99.90;;;;;;4993678;28;20660;-76
2022/04/09 05:11:58;;;;;;;15.73;14.63;;;3.80;99.90;;;;;;4983344;28;20279;-76
2022/04/09 05:14:34;;;;;;;19.03;17.83;;;3.80;99.90;;;;;;4974952;28;20503;-78
2022/04/09 05:17:05;;;;;;;20.10;18.80;;;3.80;99.90;;;;;;4974742;28;21209;-77
2022/04/09 05:19:35;;;;;;;19.93;18.63;;;3.80;99.90;;;;;;4974945;28;20210;-79
2022/04/09 05:22:11;;;;;;;18.73;17.43;;;3.80;99.90;;;;;;4973326;28;20451;-80
2022/04/09 05:24:49;;;;;;;13.40;12.23;;;3.80;99.90;;;;;;4979373;28;20192;-78
2022/04/09 05:27:17;;;;;;;15.90;14.60;;;3.80;99.90;;;;;;4983708;28;20232;-79
2022/04/09 05:29:44;;;;;;;17.13;15.77;;;3.80;99.90;;;;;;4987714;28;20902;-79
2022/04/09 05:32:14;;;;;;;15.47;14.07;;;3.80;99.90;;;;;;4987450;28;20264;-78
2022/04/09 05:34:42;;;;;;;13.57;12.37;;;3.90;99.90;;;;;;4985830;28;20479;-78
2022/04/09 05:37:11;;;;;;;17.90;16.60;;;3.90;99.90;;;;;;4977157;28;20190;-78
2022/04/09 05:39:37;;;;;;;11.67;10.60;;;4.00;99.90;;;;;;4972931;28;20228;-78
2022/04/09 05:42:06;;;;;;;14.67;13.27;;;4.00;99.90;;;;;;4974097;28;20202;-77
2022/04/09 05:44:33;;;;;;;12.50;11.27;;;4.00;99.90;;;;;;4975246;28;20202;-76
2022/04/09 05:47:00;;;;;;;22.50;20.90;;;4.10;99.90;;;;;;4980418;28;20209;-77
2022/04/09 05:49:28;;;;;;;24.03;22.23;;;4.10;99.90;;;;;;4975421;28;20217;-76
2022/04/09 05:51:55;;;;;;;20.80;19.00;;;4.20;99.90;;;;;;4987995;28;20444;-77
2022/04/09 05:54:24;;;;;;;12.23;10.40;;;4.30;99.90;;;;;;4982930;28;20741;-78
2022/04/09 05:56:53;;;;;;;15.00;13.60;;;4.30;99.90;;;;;;4977535;28;20198;-78
2022/04/09 05:59:26;;;;;;;10.80;9.70;;;4.30;99.90;;;;;;4973600;28;20313;-77
2022/04/09 06:01:55;;;;;;;10.93;9.87;;;4.40;99.90;;;;;;4970473;28;20214;-78
2022/04/09 06:04:22;;;;;;;14.70;13.40;;;4.40;99.90;;;;;;4973761;28;20286;-77
2022/04/09 06:06:53;;;;;;;11.27;9.37;;;4.40;99.90;;;;;;4967460;28;20198;-78
2022/04/09 06:09:25;;;;;;;11.47;10.37;;;4.40;99.90;;;;;;4976416;28;20224;-79
2022/04/09 06:11:55;;;;;;;10.60;9.50;;;4.40;99.90;;;;;;4982333;28;20248;-78
2022/04/09 06:14:28;;;;;;;11.87;10.30;;;4.40;99.90;;;;;;4995027;28;20257;-78
2022/04/09 06:16:59;;;;;;;12.23;10.53;;;4.40;99.90;;;;;;4998145;28;20189;-78
2022/04/09 06:19:27;;;;;;;10.93;9.83;;;4.40;99.90;;;;;;4980871;28;20241;-78
2022/04/09 06:21:54;;;;;;;12.20;10.67;;;4.50;99.90;;;;;;4984097;28;20193;-78
2022/04/09 06:24:27;;;;;;;12.80;9.93;;;4.60;99.90;;;;;;4992989;28;20194;-79
2022/04/09 06:26:55;;;;;;;10.60;9.50;;;4.80;99.90;;;;;;4967124;28;20205;-78
2022/04/09 06:29:23;;;;;;;13.80;9.67;;;4.80;99.90;;;;;;4980321;28;20233;-78
2022/04/09 06:31:53;;;;;;;11.27;10.10;;;4.90;99.90;;;;;;4987914;28;20670;-78
2022/04/09 06:34:21;;;;;;;11.40;10.30;;;5.00;99.90;;;;;;4970973;28;20206;-78
2022/04/09 06:36:50;;;;;;;11.53;10.37;;;5.10;99.90;;;;;;4974468;28;20256;-78
2022/04/09 06:39:18;;;;;;;9.87;8.87;;;5.10;99.90;;;;;;4976264;28;20221;-78
2022/04/09 06:41:49;;;;;;;11.20;10.10;;;5.30;99.90;;;;;;4969008;28;20273;-78
2022/04/09 06:44:21;;;;;;;11.27;10.07;;;5.50;99.90;;;;;;4984832;28;20202;-77
2022/04/09 06:46:53;;;;;;;18.60;17.20;;;5.50;99.90;;;;;;4990584;28;20205;-77
2022/04/09 06:49:31;;;;;;;19.17;17.87;;;5.60;99.90;;;;;;4982522;28;20230;-77
2022/04/09 06:52:07;;;;;;;19.20;17.83;;;5.70;99.90;;;;;;4981600;28;20662;-77
2022/04/09 06:54:47;;;;;;;19.53;18.07;;;5.80;99.90;;;;;;4976034;28;20197;-77
2022/04/09 06:57:16;;;;;;;15.57;14.10;;;5.80;99.90;;;;;;4985003;28;20212;-78
2022/04/09 06:59:46;;;;;;;15.90;14.23;;;5.90;99.90;;;;;;4989672;28;20304;-78
2022/04/09 07:02:14;;;;;;;11.23;7.77;;;5.90;99.90;;;;;;4981549;28;20619;-78
2022/04/09 07:04:41;;;;;;;9.27;8.37;;;5.90;99.90;;;;;;4976861;28;20193;-78
2022/04/09 07:07:08;;;;;;;13.70;12.47;;;6.00;99.90;;;;;;4984666;28;20197;-78
2022/04/09 07:09:35;;;;;;;15.47;14.27;;;6.00;99.90;;;;;;4984682;28;20252;-79
2022/04/09 07:12:02;;;;;;;16.87;15.33;;;5.90;99.90;;;;;;4988383;28;20197;-78
2022/04/09 07:14:30;;;;;;;16.60;15.13;;;5.90;99.90;;;;;;4982878;28;20202;-77
2022/04/09 07:17:03;;;;;;;14.37;13.23;;;5.90;99.90;;;;;;4985562;28;20228;-77
2022/04/09 07:19:29;;;;;;;7.23;6.53;;;6.00;99.90;;;;;;4983958;28;20612;-80
2022/04/09 07:21:56;;;;;;;6.83;6.23;;;6.10;99.90;;;;;;4988921;28;20268;-79
2022/04/09 07:24:23;;;;;;;7.27;6.53;;;6.20;99.90;;;;;;4965575;28;20195;-80
2022/04/09 07:26:50;;;;;;;6.23;5.63;;;6.20;99.90;;;;;;4978628;28;20248;-77
2022/04/09 07:29:17;;;;;;;9.63;8.90;;;6.20;99.90;;;;;;4978985;28;20216;-77
2022/04/09 07:31:47;;;;;;;11.70;10.70;;;6.30;99.90;;;;;;4985034;28;20194;-77
2022/04/09 07:34:13;;;;;;;8.90;8.10;;;6.30;99.90;;;;;;4981908;28;20190;-77
2022/04/09 07:36:40;;;;;;;9.63;8.83;;;6.40;99.90;;;;;;4977668;28;20203;-76
2022/04/09 07:39:07;;;;;;;7.07;4.93;;;6.70;99.90;;;;;;4977341;28;20220;-77
2022/04/09 07:41:34;;;;;;;6.30;5.20;;;6.90;99.90;;;;;;4973078;28;20690;-77
2022/04/09 07:44:01;;;;;;;6.17;5.00;;;7.00;99.90;;;;;;4978861;28;20203;-77
2022/04/09 07:46:28;;;;;;;9.30;8.60;;;7.20;99.90;;;;;;4983894;28;20225;-81
2022/04/09 07:48:56;;;;;;;12.80;11.90;;;7.20;99.90;;;;;;4967965;28;20232;-82
2022/04/09 07:51:23;;;;;;;13.90;12.90;;;7.90;99.90;;;;;;4964086;28;20218;-79
2022/04/09 07:53:49;;;;;;;8.93;8.23;;;8.60;99.90;;;;;;4962780;28;20200;-81
2022/04/09 07:56:16;;;;;;;10.03;9.33;;;9.20;99.90;;;;;;4977579;28;20347;-78
2022/04/09 07:58:43;;;;;;;9.23;8.53;;;9.50;99.90;;;;;;4986055;28;20194;-80
2022/04/09 08:01:10;;;;;;;7.20;6.60;;;9.40;99.90;;;;;;4971318;28;20197;-82
2022/04/09 08:03:37;;;;;;;8.50;7.80;;;9.30;99.90;;;;;;4978453;28;20209;-78
2022/04/09 08:06:05;;;;;;;10.23;9.43;;;9.60;99.90;;;;;;4971003;28;20198;-78
2022/04/09 08:08:32;;;;;;;7.10;4.50;;;10.10;99.90;;;;;;4982138;28;20212;-78
2022/04/09 08:10:59;;;;;;;4.53;3.90;;;10.50;99.90;;;;;;4982751;28;20610;-78
2022/04/09 08:13:26;;;;;;;8.17;6.43;;;11.00;99.90;;;;;;4980765;28;20663;-78
2022/04/09 08:15:52;;;;;;;6.40;5.60;;;11.30;99.90;;;;;;4979845;28;20253;-79
2022/04/09 08:18:19;;;;;;;6.47;5.63;;;11.30;99.90;;;;;;4980690;28;20203;-78
2022/04/09 08:20:46;;;;;;;6.77;6.07;;;11.10;99.90;;;;;;4983446;28;20637;-77
2022/04/09 08:23:14;;;;;;;7.10;4.90;;;11.20;99.90;;;;;;4988176;28;20558;-77
2022/04/09 08:25:41;;;;;;;6.80;6.30;;;11.00;99.90;;;;;;4972023;28;20246;-78
2022/04/09 08:28:08;;;;;;;7.93;6.00;;;11.00;99.90;;;;;;4972496;28;20298;-79
2022/04/09 08:30:36;;;;;;;7.57;7.00;;;10.90;99.90;;;;;;4976231;28;20281;-78
2022/04/09 08:33:05;;;;;;;6.00;5.40;;;10.90;99.90;;;;;;4979966;28;20228;-78
2022/04/09 08:35:32;;;;;;;9.07;6.10;;;11.20;99.90;;;;;;4979876;28;20238;-78
2022/04/09 08:37:59;;;;;;;9.33;8.47;;;11.30;99.90;;;;;;4982369;28;20197;-78
2022/04/09 08:40:27;;;;;;;9.00;8.30;;;11.00;99.90;;;;;;4987053;28;20215;-78
2022/04/09 08:42:56;;;;;;;8.80;8.10;;;10.50;99.90;;;;;;4990249;28;20200;-78
2022/04/09 08:45:23;;;;;;;8.83;8.13;;;9.80;99.90;;;;;;4984658;28;20233;-78
2022/04/09 08:47:51;;;;;;;8.43;7.77;;;10.00;99.90;;;;;;4987479;28;20708;-78
2022/04/09 08:50:19;;;;;;;7.47;6.97;;;10.50;99.90;;;;;;4974352;28;20706;-77
2022/04/09 08:52:46;;;;;;;8.20;6.07;;;10.80;99.90;;;;;;4987644;28;20225;-78
2022/04/09 08:55:13;;;;;;;8.47;7.57;;;11.20;99.90;;;;;;4969340;28;20201;-77
2022/04/09 08:57:42;;;;;;;7.63;6.63;;;11.70;99.90;;;;;;4986496;28;20277;-78
2022/04/09 09:00:13;;;;;;;5.67;5.00;;;12.50;99.90;;;;;;4967536;28;20618;-77
2022/04/09 09:02:49;;;;;;;6.57;5.30;;;13.00;99.90;;;;;;4973806;28;20204;-79
2022/04/09 09:05:29;;;;;;;4.13;3.47;;;13.40;99.90;;;;;;4984143;28;20201;-78
2022/04/09 09:07:56;;;;;;;6.67;4.13;;;13.70;99.90;;;;;;4978814;28;20218;-78
2022/04/09 09:10:23;;;;;;;6.67;4.13;;;13.00;99.90;;;;;;4984304;28;20221;-77
2022/04/09 09:13:00;;;;;;;6.40;5.90;;;12.20;99.90;;;;;;4977555;28;20201;-78
2022/04/09 09:15:27;;;;;;;9.30;6.37;;;11.50;99.90;;;;;;4985830;28;20203;-78
2022/04/09 09:17:57;;;;;;;7.20;5.47;;;10.90;99.90;;;;;;4988044;28;20204;-78
2022/04/09 09:20:24;;;;;;;7.77;6.20;;;10.60;99.90;;;;;;4985659;28;20222;-78
2022/04/09 09:22:51;;;;;;;6.47;5.87;;;11.20;99.90;;;;;;4981447;28;20205;-78
2022/04/09 09:25:18;;;;;;;6.00;5.20;;;11.70;99.90;;;;;;4982925;28;20194;-78
2022/04/09 09:27:45;;;;;;;7.53;5.30;;;11.70;99.90;;;;;;4978695;28;20247;-78
2022/04/09 09:30:14;;;;;;;7.30;5.90;;;11.90;99.90;;;;;;4978067;28;20230;-79
2022/04/09 09:32:42;;;;;;;6.53;5.83;;;12.10;99.90;;;;;;4984645;28;20257;-79
2022/04/09 09:35:12;;;;;;;7.00;6.30;;;11.60;99.90;;;;;;4974297;28;20658;-79
2022/04/09 09:37:38;;;;;;;10.77;8.20;;;10.80;99.90;;;;;;4976604;28;20223;-78
2022/04/09 09:40:06;;;;;;;7.23;4.93;;;10.60;99.90;;;;;;4983495;28;20207;-78
2022/04/09 09:42:35;;;;;;;5.13;4.60;;;10.80;99.90;;;;;;4990899;28;20202;-77
2022/04/09 09:45:02;;;;;;;5.10;4.60;;;11.20;99.90;;;;;;4986326;28;20243;-77
2022/04/09 09:47:30;;;;;;;4.77;3.47;;;11.80;99.90;;;;;;4984432;28;20214;-78
2022/04/09 09:49:58;;;;;;;6.70;6.10;;;12.20;99.90;;;;;;4994459;28;20305;-78
2022/04/09 09:52:26;;;;;;;7.33;6.37;;;12.30;99.90;;;;;;4985562;28;20728;-77
2022/04/09 09:54:58;;;;;;;7.93;6.47;;;12.60;99.90;;;;;;4994079;28;20246;-78
2022/04/09 09:57:29;;;;;;;5.97;5.37;;;12.90;99.90;;;;;;4989586;28;20255;-78
2022/04/09 09:59:58;;;;;;;7.30;5.80;;;13.30;99.90;;;;;;4979432;28;20276;-78
2022/04/09 10:02:26;;;;;;;6.90;6.40;;;13.10;99.90;;;;;;4984225;28;20209;-77
2022/04/09 10:04:55;;;;;;;5.03;4.53;;;13.30;99.90;;;;;;4976379;28;20201;-78
2022/04/09 10:07:23;;;;;;;5.30;4.80;;;13.10;99.90;;;;;;4982777;28;20198;-77
2022/04/09 10:09:50;;;;;;;8.03;5.27;;;12.50;99.90;;;;;;4977363;28;20214;-79
2022/04/09 10:12:20;;;;;;;8.00;7.40;;;11.90;99.90;;;;;;4985134;28;20193;-78
2022/04/09 10:14:51;;;;;;;7.87;7.20;;;11.40;99.90;;;;;;4976916;28;20626;-77
2022/04/09 10:17:19;;;;;;;8.30;6.73;;;11.00;99.90;;;;;;4986005;28;20279;-77
2022/04/09 10:19:52;;;;;;;8.00;7.27;;;10.70;99.90;;;;;;4987283;28;20206;-79
2022/04/09 10:22:23;;;;;;;8.83;7.73;;;10.10;99.90;;;;;;4980752;28;20212;-77
2022/04/09 10:24:51;;;;;;;9.17;8.47;;;9.90;99.90;;;;;;4980121;28;20245;-78
2022/04/09 10:27:38;;;;;;;7.23;6.53;;;9.90;99.90;;;;;;4980630;28;20229;-79
2022/04/09 10:30:19;;;;;;;7.73;7.13;;;10.20;99.90;;;;;;4997760;28;20267;-79
2022/04/09 10:32:48;;;;;;;7.43;5.77;;;10.50;99.90;;;;;;5001563;28;20584;-78
2022/04/09 10:35:46;;;;;;;5.93;4.73;;;10.20;99.90;;;;;;4975654;28;20203;-77
2022/04/09 10:38:24;;;;;;;8.17;5.47;;;9.90;99.90;;;;;;4955441;28;20194;-77
2022/04/09 10:41:31;;;;;;;6.07;5.20;;;10.10;99.90;;;;;;5003582;28;20630;-77
2022/04/09 10:44:00;;;;;;;6.20;5.60;;;10.30;99.90;;;;;;4937828;28;20205;-77
2022/04/09 10:46:33;;;;;;;5.23;4.80;;;10.50;99.90;;;;;;4995889;28;20207;-78
2022/04/09 10:49:19;;;;;;;7.27;5.10;;;10.60;99.90;;;;;;4969191;28;20234;-78
2022/04/09 10:52:03;;;;;;;5.93;5.47;;;10.80;99.90;;;;;;4973900;28;20254;-78
2022/04/09 10:54:32;;;;;;;6.07;4.50;;;10.90;99.90;;;;;;4979970;28;20202;-78
2022/04/09 10:57:08;;;;;;;5.30;4.80;;;11.00;99.90;;;;;;4979039;28;20205;-78
2022/04/09 10:59:37;;;;;;;6.47;5.77;;;10.70;99.90;;;;;;4994485;28;20213;-81
2022/04/09 11:02:05;;;;;;;8.20;6.00;;;10.60;99.90;;;;;;4978907;28;20907;-82
2022/04/09 11:04:39;;;;;;;7.13;6.13;;;10.40;99.90;;;;;;4970158;28;20204;-80
2022/04/09 11:07:07;;;;;;;5.27;4.97;;;10.00;99.90;;;;;;4972747;28;20222;-83
2022/04/09 11:09:45;;;;;;;4.83;4.43;;;10.10;99.90;;;;;;4972586;28;20678;-82
2022/04/09 11:12:13;;;;;;;7.50;5.57;;;10.10;99.90;;;;;;4978457;28;20213;-79
2022/04/09 11:14:45;;;;;;;10.07;7.40;;;10.00;99.90;;;;;;4992479;28;20668;-81
2022/04/09 11:17:16;;;;;;;5.43;4.50;;;9.80;99.90;;;;;;4976072;28;20647;-80
2022/04/09 11:19:43;;;;;;;6.10;5.50;;;9.50;99.90;;;;;;4994542;28;20227;-80
2022/04/09 11:22:10;;;;;;;6.50;5.90;;;9.40;99.90;;;;;;4975756;28;20284;-79
2022/04/09 11:24:38;;;;;;;6.30;5.73;;;9.30;99.90;;;;;;4973373;28;20205;-80
2022/04/09 11:27:07;;;;;;;8.97;6.60;;;9.30;99.90;;;;;;4976224;28;20296;-80
2022/04/09 11:29:34;;;;;;;5.17;4.67;;;9.30;99.90;;;;;;4985409;28;20319;-79
2022/04/09 11:32:02;;;;;;;8.20;6.20;;;9.30;99.90;;;;;;4984118;28;20301;-79
2022/04/09 11:34:29;;;;;;;6.23;5.70;;;9.40;99.90;;;;;;4983729;28;20209;-80
2022/04/09 11:37:10;;;;;;;6.50;6.00;;;9.70;99.90;;;;;;4997606;28;20237;-78
2022/04/09 11:39:41;;;;;;;5.40;4.90;;;10.00;99.90;;;;;;4984198;28;20237;-79
2022/04/09 11:42:10;;;;;;;5.70;5.20;;;10.30;99.90;;;;;;4965480;28;20202;-79
2022/04/09 11:44:38;;;;;;;11.23;7.37;;;10.50;99.90;;;;;;4972296;28;20194;-78
2022/04/09 11:47:10;;;;;;;6.47;5.70;;;10.60;99.90;;;;;;4977615;28;20199;-80
2022/04/09 11:49:37;;;;;;;6.30;5.73;;;10.50;99.90;;;;;;4972707;28;20407;-84
2022/04/09 11:52:08;;;;;;;7.13;6.60;;;10.40;99.90;;;;;;4965296;28;20675;-78
2022/04/09 11:54:36;;;;;;;7.00;6.40;;;10.10;99.90;;;;;;4975873;28;20292;-80
2022/04/09 11:57:04;;;;;;;4.50;4.10;;;9.80;99.90;;;;;;4970064;28;20583;-78
2022/04/09 11:59:33;;;;;;;13.70;12.70;;;9.60;99.90;;;;;;4972825;28;20228;-79
2022/04/09 12:02:01;;;;;;;9.30;8.47;;;9.50;99.90;;;;;;4970194;28;20245;-79
2022/04/09 12:04:34;;;;;;;6.03;5.20;;;9.40;99.90;;;;;;4975460;28;20689;-79
2022/04/09 12:07:03;;;;;;;6.43;4.13;;;9.20;99.90;;;;;;4998293;28;20201;-79
2022/04/09 12:09:31;;;;;;;6.20;5.70;;;9.00;99.90;;;;;;4991057;28;20222;-80
2022/04/09 12:12:01;;;;;;;4.07;2.60;;;9.00;99.90;;;;;;4995909;28;20199;-79
2022/04/09 12:14:29;;;;;;;4.40;2.87;;;8.90;99.90;;;;;;4972643;28;20213;-79
2022/04/09 12:16:57;;;;;;;5.27;2.80;;;9.10;99.90;;;;;;4977341;28;20197;-80
2022/04/09 12:19:31;;;;;;;4.00;2.57;;;9.50;99.90;;;;;;4981173;28;20213;-79
2022/04/09 12:22:13;;;;;;;4.27;2.47;;;9.90;99.90;;;;;;4982721;28;20225;-79
2022/04/09 12:24:56;;;;;;;5.03;2.50;;;10.20;99.90;;;;;;4969915;28;20220;-78
2022/04/09 12:27:43;;;;;;;3.50;2.60;;;10.30;99.90;;;;;;4969059;28;20241;-78
2022/04/09 12:30:11;;;;;;;4.33;2.50;;;10.30;99.90;;;;;;4973411;28;20218;-79
2022/04/09 12:32:41;;;;;;;2.60;2.40;;;10.20;99.90;;;;;;4968851;28;20205;-80
2022/04/09 12:35:09;;;;;;;5.70;2.77;;;10.00;99.90;;;;;;4974803;28;20205;-79
2022/04/09 12:37:44;;;;;;;4.00;2.80;;;9.70;99.90;;;;;;4964802;28;20197;-80
2022/04/09 12:40:13;;;;;;;4.37;2.67;;;9.60;99.90;;;;;;4974110;28;20221;-79
2022/04/09 12:42:40;;;;;;;3.23;2.20;;;9.50;99.90;;;;;;4983485;28;20201;-77
2022/04/09 12:45:12;;;;;;;6.73;2.67;;;9.50;99.90;;;;;;4981805;28;20201;-77
2022/04/09 12:47:41;;;;;;;3.77;2.73;;;9.30;99.90;;;;;;4985173;28;20213;-80
2022/04/09 12:50:19;;;;;;;4.90;2.30;;;9.50;99.90;;;;;;4978427;28;20232;-78
2022/04/09 12:52:46;;;;;;;4.13;2.30;;;9.60;99.90;;;;;;4992002;28;20189;-80
2022/04/09 12:55:25;;;;;;;16.47;3.00;;;9.70;99.90;;;;;;4973506;28;20198;-79